sensor_id;sensor_type;location;lat;lon;timestamp;P1;durP1;ratioP1;P2;durP2;ratioP2
2684;SDS011;1352;48.446;9.156;2022-07-23T00:01:00;9.90;;;8.90;;
2684;SDS011;1352;48.446;9.156;2022-07-23T00:03:27;9.33;;;8.43;;
2684;SDS011;1352;48.446;9.156;2022-07-23T00:05:54;10.50;;;9.60;;
2684;SDS011;1352;48.446;9.156;2022-07-23T00:08:22;9.73;;;8.83;;
2684;SDS011;1352;48.446;9.156;2022-07-23T00:10:49;9.83;;;8.93;;
2684;SDS011;1352;48.446;9.156;2022-07-23T00:13:16;9.60;;;8.90;;
2684;SDS011;1352;48.446;9.156;2022-07-23T00:15:44;8.70;;;8.00;;
2684;SDS011;1352;48.446;9.156;2022-07-23T00:18:11;8.10;;;7.47;;
2684;SDS011;1352;48.446;9.156;2022-07-23T00:20:38;9.77;;;9.00;;
2684;SDS011;1352;48.446;9.156;2022-07-23T00:23:05;8.83;;;8.00;;
2684;SDS011;1352;48.446;9.156;2022-07-23T00:25:33;9.00;;;8.10;;
2684;SDS011;1352;48.446;9.156;2022-07-23T00:28:01;9.07;;;8.30;;
2684;SDS011;1352;48.446;9.156;2022-07-23T00:30:28;8.10;;;7.40;;
2684;SDS011;1352;48.446;9.156;2022-07-23T00:32:57;8.37;;;7.77;;
2684;SDS011;1352;48.446;9.156;2022-07-23T00:35:26;8.60;;;7.90;;
2684;SDS011;1352;48.446;9.156;2022-07-23T00:37:56;8.40;;;7.70;;
2684;SDS011;1352;48.446;9.156;2022-07-23T00:40:23;8.13;;;7.53;;
2684;SDS011;1352;48.446;9.156;2022-07-23T00:42:52;8.27;;;7.63;;
2684;SDS011;1352;48.446;9.156;2022-07-23T00:45:19;8.40;;;7.67;;
2684;SDS011;1352;48.446;9.156;2022-07-23T00:47:47;8.97;;;8.17;;
2684;SDS011;1352;48.446;9.156;2022-07-23T00:50:14;8.20;;;7.40;;
2684;SDS011;1352;48.446;9.156;2022-07-23T00:52:41;8.27;;;7.57;;
2684;SDS011;1352;48.446;9.156;2022-07-23T00:55:09;10.47;;;9.67;;
2684;SDS011;1352;48.446;9.156;2022-07-23T00:57:40;10.90;;;9.53;;
2684;SDS011;1352;48.446;9.156;2022-07-23T01:00:11;9.57;;;8.67;;
2684;SDS011;1352;48.446;9.156;2022-07-23T01:02:39;11.00;;;10.10;;
2684;SDS011;1352;48.446;9.156;2022-07-23T01:05:07;10.90;;;9.97;;
2684;SDS011;1352;48.446;9.156;2022-07-23T01:07:35;11.47;;;10.43;;
2684;SDS011;1352;48.446;9.156;2022-07-23T01:10:03;12.60;;;10.77;;
2684;SDS011;1352;48.446;9.156;2022-07-23T01:12:51;10.43;;;9.43;;
2684;SDS011;1352;48.446;9.156;2022-07-23T01:15:19;11.30;;;10.30;;
2684;SDS011;1352;48.446;9.156;2022-07-23T01:17:50;10.40;;;9.60;;
2684;SDS011;1352;48.446;9.156;2022-07-23T01:20:18;11.60;;;10.57;;
2684;SDS011;1352;48.446;9.156;2022-07-23T01:22:46;11.90;;;10.90;;
2684;SDS011;1352;48.446;9.156;2022-07-23T01:25:14;10.03;;;9.20;;
2684;SDS011;1352;48.446;9.156;2022-07-23T01:27:41;10.67;;;9.77;;
2684;SDS011;1352;48.446;9.156;2022-07-23T01:30:09;10.70;;;9.77;;
2684;SDS011;1352;48.446;9.156;2022-07-23T01:32:36;11.20;;;10.10;;
2684;SDS011;1352;48.446;9.156;2022-07-23T01:35:04;10.50;;;9.23;;
2684;SDS011;1352;48.446;9.156;2022-07-23T01:37:32;10.80;;;9.90;;
2684;SDS011;1352;48.446;9.156;2022-07-23T01:40:01;10.63;;;9.83;;
2684;SDS011;1352;48.446;9.156;2022-07-23T01:42:28;11.10;;;10.13;;
2684;SDS011;1352;48.446;9.156;2022-07-23T01:44:55;9.60;;;8.67;;
2684;SDS011;1352;48.446;9.156;2022-07-23T01:47:22;8.57;;;7.87;;
2684;SDS011;1352;48.446;9.156;2022-07-23T01:49:52;9.50;;;8.60;;
2684;SDS011;1352;48.446;9.156;2022-07-23T01:52:19;9.50;;;8.70;;
2684;SDS011;1352;48.446;9.156;2022-07-23T01:54:46;9.03;;;8.37;;
2684;SDS011;1352;48.446;9.156;2022-07-23T01:57:15;8.20;;;7.40;;
2684;SDS011;1352;48.446;9.156;2022-07-23T01:59:44;8.70;;;7.80;;
2684;SDS011;1352;48.446;9.156;2022-07-23T02:02:11;8.13;;;7.53;;
2684;SDS011;1352;48.446;9.156;2022-07-23T02:04:39;9.70;;;8.83;;
2684;SDS011;1352;48.446;9.156;2022-07-23T02:07:06;8.60;;;7.83;;
2684;SDS011;1352;48.446;9.156;2022-07-23T02:09:33;8.30;;;7.60;;
2684;SDS011;1352;48.446;9.156;2022-07-23T02:12:01;8.40;;;7.63;;
2684;SDS011;1352;48.446;9.156;2022-07-23T02:14:32;7.93;;;7.23;;
2684;SDS011;1352;48.446;9.156;2022-07-23T02:16:59;9.10;;;6.67;;
2684;SDS011;1352;48.446;9.156;2022-07-23T02:19:26;7.53;;;6.87;;
2684;SDS011;1352;48.446;9.156;2022-07-23T02:21:54;9.07;;;7.60;;
2684;SDS011;1352;48.446;9.156;2022-07-23T02:24:21;9.33;;;8.50;;
2684;SDS011;1352;48.446;9.156;2022-07-23T02:26:51;9.47;;;8.67;;
2684;SDS011;1352;48.446;9.156;2022-07-23T02:29:18;11.20;;;9.80;;
2684;SDS011;1352;48.446;9.156;2022-07-23T02:31:49;11.50;;;10.40;;
2684;SDS011;1352;48.446;9.156;2022-07-23T02:34:16;11.80;;;10.63;;
2684;SDS011;1352;48.446;9.156;2022-07-23T02:36:46;11.07;;;9.97;;
2684;SDS011;1352;48.446;9.156;2022-07-23T02:39:13;11.90;;;10.90;;
2684;SDS011;1352;48.446;9.156;2022-07-23T02:41:40;10.83;;;10.03;;
2684;SDS011;1352;48.446;9.156;2022-07-23T02:44:07;10.80;;;9.83;;
2684;SDS011;1352;48.446;9.156;2022-07-23T02:46:35;12.77;;;11.60;;
2684;SDS011;1352;48.446;9.156;2022-07-23T02:49:03;11.13;;;10.23;;
2684;SDS011;1352;48.446;9.156;2022-07-23T02:51:30;12.00;;;10.80;;
2684;SDS011;1352;48.446;9.156;2022-07-23T02:53:58;11.90;;;10.70;;
2684;SDS011;1352;48.446;9.156;2022-07-23T02:56:29;11.53;;;10.40;;
2684;SDS011;1352;48.446;9.156;2022-07-23T02:58:56;11.83;;;10.83;;
2684;SDS011;1352;48.446;9.156;2022-07-23T03:01:23;11.00;;;10.00;;
2684;SDS011;1352;48.446;9.156;2022-07-23T03:03:53;11.30;;;10.10;;
2684;SDS011;1352;48.446;9.156;2022-07-23T03:06:21;10.90;;;10.00;;
2684;SDS011;1352;48.446;9.156;2022-07-23T03:08:51;10.80;;;9.90;;
2684;SDS011;1352;48.446;9.156;2022-07-23T03:11:18;10.80;;;9.90;;
2684;SDS011;1352;48.446;9.156;2022-07-23T03:13:48;10.30;;;9.40;;
2684;SDS011;1352;48.446;9.156;2022-07-23T03:16:15;11.23;;;10.33;;
2684;SDS011;1352;48.446;9.156;2022-07-23T03:18:42;11.10;;;10.20;;
2684;SDS011;1352;48.446;9.156;2022-07-23T03:21:09;10.33;;;9.43;;
2684;SDS011;1352;48.446;9.156;2022-07-23T03:23:38;10.40;;;9.50;;
2684;SDS011;1352;48.446;9.156;2022-07-23T03:26:05;9.33;;;8.63;;
2684;SDS011;1352;48.446;9.156;2022-07-23T03:28:32;11.40;;;10.20;;
2684;SDS011;1352;48.446;9.156;2022-07-23T03:31:00;10.57;;;9.67;;
2684;SDS011;1352;48.446;9.156;2022-07-23T03:33:27;11.93;;;10.83;;
2684;SDS011;1352;48.446;9.156;2022-07-23T03:35:54;10.90;;;9.70;;
2684;SDS011;1352;48.446;9.156;2022-07-23T03:38:21;11.57;;;10.47;;
2684;SDS011;1352;48.446;9.156;2022-07-23T03:40:49;10.40;;;9.40;;
2684;SDS011;1352;48.446;9.156;2022-07-23T03:43:17;11.27;;;10.30;;
2684;SDS011;1352;48.446;9.156;2022-07-23T03:45:44;12.30;;;9.20;;
2684;SDS011;1352;48.446;9.156;2022-07-23T03:48:11;10.67;;;9.77;;
2684;SDS011;1352;48.446;9.156;2022-07-23T03:50:38;10.97;;;9.97;;
2684;SDS011;1352;48.446;9.156;2022-07-23T03:53:05;12.10;;;10.80;;
2684;SDS011;1352;48.446;9.156;2022-07-23T03:55:32;10.90;;;10.00;;
2684;SDS011;1352;48.446;9.156;2022-07-23T03:58:01;11.27;;;10.37;;
2684;SDS011;1352;48.446;9.156;2022-07-23T04:00:28;11.63;;;10.60;;
2684;SDS011;1352;48.446;9.156;2022-07-23T04:02:55;11.10;;;10.10;;
2684;SDS011;1352;48.446;9.156;2022-07-23T04:05:22;11.00;;;10.10;;
2684;SDS011;1352;48.446;9.156;2022-07-23T04:07:49;11.83;;;10.83;;
2684;SDS011;1352;48.446;9.156;2022-07-23T04:10:16;11.20;;;10.30;;
2684;SDS011;1352;48.446;9.156;2022-07-23T04:12:43;12.07;;;10.60;;
2684;SDS011;1352;48.446;9.156;2022-07-23T04:15:12;12.20;;;11.20;;
2684;SDS011;1352;48.446;9.156;2022-07-23T04:17:39;11.10;;;10.10;;
2684;SDS011;1352;48.446;9.156;2022-07-23T04:20:06;11.43;;;10.33;;
2684;SDS011;1352;48.446;9.156;2022-07-23T04:22:34;12.10;;;11.10;;
2684;SDS011;1352;48.446;9.156;2022-07-23T04:25:01;11.77;;;10.57;;
2684;SDS011;1352;48.446;9.156;2022-07-23T04:27:28;11.77;;;10.70;;
2684;SDS011;1352;48.446;9.156;2022-07-23T04:29:58;10.90;;;9.97;;
2684;SDS011;1352;48.446;9.156;2022-07-23T04:32:27;12.37;;;11.10;;
2684;SDS011;1352;48.446;9.156;2022-07-23T04:34:54;11.13;;;10.23;;
2684;SDS011;1352;48.446;9.156;2022-07-23T04:37:21;13.27;;;12.07;;
2684;SDS011;1352;48.446;9.156;2022-07-23T04:39:48;11.30;;;10.40;;
2684;SDS011;1352;48.446;9.156;2022-07-23T04:42:15;12.10;;;10.93;;
2684;SDS011;1352;48.446;9.156;2022-07-23T04:44:42;11.57;;;10.57;;
2684;SDS011;1352;48.446;9.156;2022-07-23T04:47:09;11.27;;;10.33;;
2684;SDS011;1352;48.446;9.156;2022-07-23T04:49:38;12.60;;;10.43;;
2684;SDS011;1352;48.446;9.156;2022-07-23T04:52:05;13.67;;;12.37;;
2684;SDS011;1352;48.446;9.156;2022-07-23T04:54:34;13.03;;;10.93;;
2684;SDS011;1352;48.446;9.156;2022-07-23T04:57:01;12.20;;;11.10;;
2684;SDS011;1352;48.446;9.156;2022-07-23T04:59:29;11.67;;;10.67;;
2684;SDS011;1352;48.446;9.156;2022-07-23T05:01:56;12.73;;;11.27;;
2684;SDS011;1352;48.446;9.156;2022-07-23T05:04:23;12.63;;;11.50;;
2684;SDS011;1352;48.446;9.156;2022-07-23T05:06:51;11.97;;;10.87;;
2684;SDS011;1352;48.446;9.156;2022-07-23T05:09:18;11.73;;;10.63;;
2684;SDS011;1352;48.446;9.156;2022-07-23T05:11:45;12.90;;;11.60;;
2684;SDS011;1352;48.446;9.156;2022-07-23T05:14:12;10.90;;;10.10;;
2684;SDS011;1352;48.446;9.156;2022-07-23T05:16:39;12.30;;;11.20;;
2684;SDS011;1352;48.446;9.156;2022-07-23T05:19:07;12.00;;;10.93;;
2684;SDS011;1352;48.446;9.156;2022-07-23T05:21:34;12.17;;;11.17;;
2684;SDS011;1352;48.446;9.156;2022-07-23T05:24:02;12.80;;;11.70;;
2684;SDS011;1352;48.446;9.156;2022-07-23T05:26:33;11.33;;;10.33;;
2684;SDS011;1352;48.446;9.156;2022-07-23T05:29:00;11.27;;;10.37;;
2684;SDS011;1352;48.446;9.156;2022-07-23T05:31:27;12.00;;;10.73;;
2684;SDS011;1352;48.446;9.156;2022-07-23T05:33:54;11.47;;;10.53;;
2684;SDS011;1352;48.446;9.156;2022-07-23T05:36:21;11.33;;;10.07;;
2684;SDS011;1352;48.446;9.156;2022-07-23T05:38:48;12.97;;;11.53;;
2684;SDS011;1352;48.446;9.156;2022-07-23T05:41:17;12.93;;;11.93;;
2684;SDS011;1352;48.446;9.156;2022-07-23T05:43:47;13.30;;;12.20;;
2684;SDS011;1352;48.446;9.156;2022-07-23T05:46:16;13.50;;;11.57;;
2684;SDS011;1352;48.446;9.156;2022-07-23T05:48:43;12.87;;;11.67;;
2684;SDS011;1352;48.446;9.156;2022-07-23T05:51:23;11.67;;;10.73;;
2684;SDS011;1352;48.446;9.156;2022-07-23T05:53:51;12.73;;;11.73;;
2684;SDS011;1352;48.446;9.156;2022-07-23T05:56:20;11.90;;;10.93;;
2684;SDS011;1352;48.446;9.156;2022-07-23T05:58:47;12.17;;;10.97;;
2684;SDS011;1352;48.446;9.156;2022-07-23T06:01:14;12.97;;;11.67;;
2684;SDS011;1352;48.446;9.156;2022-07-23T06:03:41;12.50;;;11.33;;
2684;SDS011;1352;48.446;9.156;2022-07-23T06:06:11;13.20;;;12.13;;
2684;SDS011;1352;48.446;9.156;2022-07-23T06:08:38;12.13;;;11.07;;
2684;SDS011;1352;48.446;9.156;2022-07-23T06:11:05;11.57;;;10.67;;
2684;SDS011;1352;48.446;9.156;2022-07-23T06:13:34;12.10;;;11.20;;
2684;SDS011;1352;48.446;9.156;2022-07-23T06:16:01;12.27;;;11.20;;
2684;SDS011;1352;48.446;9.156;2022-07-23T06:18:28;12.93;;;10.63;;
2684;SDS011;1352;48.446;9.156;2022-07-23T06:20:55;13.03;;;11.20;;
2684;SDS011;1352;48.446;9.156;2022-07-23T06:23:22;11.30;;;10.30;;
2684;SDS011;1352;48.446;9.156;2022-07-23T06:25:49;12.07;;;10.80;;
2684;SDS011;1352;48.446;9.156;2022-07-23T06:28:17;11.27;;;10.47;;
2684;SDS011;1352;48.446;9.156;2022-07-23T06:30:45;11.70;;;10.67;;
2684;SDS011;1352;48.446;9.156;2022-07-23T06:33:12;11.17;;;10.27;;
2684;SDS011;1352;48.446;9.156;2022-07-23T06:35:39;10.53;;;9.73;;
2684;SDS011;1352;48.446;9.156;2022-07-23T06:38:06;11.33;;;10.27;;
2684;SDS011;1352;48.446;9.156;2022-07-23T06:40:33;12.33;;;11.07;;
2684;SDS011;1352;48.446;9.156;2022-07-23T06:43:01;11.87;;;10.97;;
2684;SDS011;1352;48.446;9.156;2022-07-23T06:45:28;11.60;;;10.70;;
2684;SDS011;1352;48.446;9.156;2022-07-23T06:47:57;10.70;;;9.80;;
2684;SDS011;1352;48.446;9.156;2022-07-23T06:50:24;11.60;;;10.47;;
2684;SDS011;1352;48.446;9.156;2022-07-23T06:52:51;12.90;;;11.77;;
2684;SDS011;1352;48.446;9.156;2022-07-23T06:55:18;11.63;;;10.67;;
2684;SDS011;1352;48.446;9.156;2022-07-23T06:57:45;11.67;;;10.60;;
2684;SDS011;1352;48.446;9.156;2022-07-23T07:00:13;12.00;;;10.90;;
2684;SDS011;1352;48.446;9.156;2022-07-23T07:02:40;11.10;;;10.20;;
2684;SDS011;1352;48.446;9.156;2022-07-23T07:05:09;11.10;;;10.10;;
2684;SDS011;1352;48.446;9.156;2022-07-23T07:07:36;10.93;;;10.00;;
2684;SDS011;1352;48.446;9.156;2022-07-23T07:10:03;11.73;;;10.53;;
2684;SDS011;1352;48.446;9.156;2022-07-23T07:12:30;10.80;;;9.80;;
2684;SDS011;1352;48.446;9.156;2022-07-23T07:14:58;10.87;;;9.87;;
2684;SDS011;1352;48.446;9.156;2022-07-23T07:17:25;11.27;;;10.33;;
2684;SDS011;1352;48.446;9.156;2022-07-23T07:19:52;11.63;;;10.53;;
2684;SDS011;1352;48.446;9.156;2022-07-23T07:22:21;12.37;;;11.17;;
2684;SDS011;1352;48.446;9.156;2022-07-23T07:24:48;11.90;;;10.80;;
2684;SDS011;1352;48.446;9.156;2022-07-23T07:27:15;11.43;;;10.33;;
2684;SDS011;1352;48.446;9.156;2022-07-23T07:29:42;10.90;;;9.97;;
2684;SDS011;1352;48.446;9.156;2022-07-23T07:32:10;11.10;;;10.20;;
2684;SDS011;1352;48.446;9.156;2022-07-23T07:34:37;11.30;;;10.30;;
2684;SDS011;1352;48.446;9.156;2022-07-23T07:37:04;10.47;;;9.63;;
2684;SDS011;1352;48.446;9.156;2022-07-23T07:39:32;10.63;;;9.80;;
2684;SDS011;1352;48.446;9.156;2022-07-23T07:41:59;11.37;;;10.47;;
2684;SDS011;1352;48.446;9.156;2022-07-23T07:44:26;10.53;;;9.63;;
2684;SDS011;1352;48.446;9.156;2022-07-23T07:46:53;11.23;;;9.90;;
2684;SDS011;1352;48.446;9.156;2022-07-23T07:49:20;11.07;;;10.07;;
2684;SDS011;1352;48.446;9.156;2022-07-23T07:51:49;11.00;;;10.20;;
2684;SDS011;1352;48.446;9.156;2022-07-23T07:54:19;11.30;;;10.40;;
2684;SDS011;1352;48.446;9.156;2022-07-23T07:56:47;11.17;;;10.17;;
2684;SDS011;1352;48.446;9.156;2022-07-23T07:59:14;10.40;;;9.60;;
2684;SDS011;1352;48.446;9.156;2022-07-23T08:01:41;9.20;;;8.50;;
2684;SDS011;1352;48.446;9.156;2022-07-23T08:04:08;10.83;;;10.03;;
2684;SDS011;1352;48.446;9.156;2022-07-23T08:06:36;10.10;;;9.30;;
2684;SDS011;1352;48.446;9.156;2022-07-23T08:09:06;10.77;;;9.97;;
2684;SDS011;1352;48.446;9.156;2022-07-23T08:11:43;10.27;;;9.47;;
2684;SDS011;1352;48.446;9.156;2022-07-23T08:14:10;10.20;;;9.40;;
2684;SDS011;1352;48.446;9.156;2022-07-23T08:16:37;11.17;;;10.27;;
2684;SDS011;1352;48.446;9.156;2022-07-23T08:19:05;10.43;;;9.33;;
2684;SDS011;1352;48.446;9.156;2022-07-23T08:21:32;11.20;;;10.20;;
2684;SDS011;1352;48.446;9.156;2022-07-23T08:23:59;11.23;;;10.30;;
2684;SDS011;1352;48.446;9.156;2022-07-23T08:26:26;10.80;;;10.00;;
2684;SDS011;1352;48.446;9.156;2022-07-23T08:28:54;10.63;;;9.83;;
2684;SDS011;1352;48.446;9.156;2022-07-23T08:31:21;10.33;;;9.47;;
2684;SDS011;1352;48.446;9.156;2022-07-23T08:33:48;10.50;;;9.60;;
2684;SDS011;1352;48.446;9.156;2022-07-23T08:36:15;10.70;;;9.80;;
2684;SDS011;1352;48.446;9.156;2022-07-23T08:38:42;10.23;;;9.33;;
2684;SDS011;1352;48.446;9.156;2022-07-23T08:41:09;10.60;;;9.70;;
2684;SDS011;1352;48.446;9.156;2022-07-23T08:43:37;11.60;;;10.60;;
2684;SDS011;1352;48.446;9.156;2022-07-23T08:46:07;11.23;;;10.30;;
2684;SDS011;1352;48.446;9.156;2022-07-23T08:48:35;11.00;;;10.07;;
2684;SDS011;1352;48.446;9.156;2022-07-23T08:51:03;11.10;;;10.30;;
2684;SDS011;1352;48.446;9.156;2022-07-23T08:53:32;10.73;;;9.93;;
2684;SDS011;1352;48.446;9.156;2022-07-23T08:56:03;9.77;;;8.97;;
2684;SDS011;1352;48.446;9.156;2022-07-23T08:58:31;11.93;;;10.83;;
2684;SDS011;1352;48.446;9.156;2022-07-23T09:00:58;11.47;;;10.50;;
2684;SDS011;1352;48.446;9.156;2022-07-23T09:03:29;11.20;;;10.20;;
2684;SDS011;1352;48.446;9.156;2022-07-23T09:05:58;11.37;;;9.57;;
2684;SDS011;1352;48.446;9.156;2022-07-23T09:08:33;11.40;;;10.30;;
2684;SDS011;1352;48.446;9.156;2022-07-23T09:11:02;10.63;;;9.80;;
2684;SDS011;1352;48.446;9.156;2022-07-23T09:13:34;9.80;;;9.00;;
2684;SDS011;1352;48.446;9.156;2022-07-23T09:16:04;10.77;;;9.87;;
2684;SDS011;1352;48.446;9.156;2022-07-23T09:18:41;12.80;;;10.67;;
2684;SDS011;1352;48.446;9.156;2022-07-23T09:21:11;11.07;;;10.13;;
2684;SDS011;1352;48.446;9.156;2022-07-23T09:23:41;10.77;;;10.07;;
2684;SDS011;1352;48.446;9.156;2022-07-23T09:26:20;10.40;;;9.60;;
2684;SDS011;1352;48.446;9.156;2022-07-23T09:29:05;10.30;;;9.57;;
2684;SDS011;1352;48.446;9.156;2022-07-23T09:31:42;11.17;;;10.17;;
2684;SDS011;1352;48.446;9.156;2022-07-23T09:34:14;10.87;;;10.00;;
2684;SDS011;1352;48.446;9.156;2022-07-23T09:36:43;11.20;;;10.33;;
2684;SDS011;1352;48.446;9.156;2022-07-23T09:39:11;11.27;;;10.20;;
2684;SDS011;1352;48.446;9.156;2022-07-23T09:41:41;11.30;;;10.40;;
2684;SDS011;1352;48.446;9.156;2022-07-23T09:44:11;12.73;;;11.77;;
2684;SDS011;1352;48.446;9.156;2022-07-23T09:46:40;12.40;;;11.30;;
2684;SDS011;1352;48.446;9.156;2022-07-23T09:49:17;12.13;;;11.13;;
2684;SDS011;1352;48.446;9.156;2022-07-23T09:51:47;11.67;;;10.73;;
2684;SDS011;1352;48.446;9.156;2022-07-23T09:54:26;12.27;;;11.17;;
2684;SDS011;1352;48.446;9.156;2022-07-23T09:56:56;11.23;;;10.30;;
2684;SDS011;1352;48.446;9.156;2022-07-23T09:59:25;11.33;;;10.40;;
2684;SDS011;1352;48.446;9.156;2022-07-23T10:01:54;11.67;;;10.60;;
2684;SDS011;1352;48.446;9.156;2022-07-23T10:04:26;11.33;;;10.53;;
2684;SDS011;1352;48.446;9.156;2022-07-23T10:06:55;13.27;;;12.00;;
2684;SDS011;1352;48.446;9.156;2022-07-23T10:09:24;12.07;;;11.07;;
2684;SDS011;1352;48.446;9.156;2022-07-23T10:11:58;10.73;;;9.97;;
2684;SDS011;1352;48.446;9.156;2022-07-23T10:14:50;11.13;;;10.23;;
2684;SDS011;1352;48.446;9.156;2022-07-23T10:17:17;11.90;;;10.90;;
2684;SDS011;1352;48.446;9.156;2022-07-23T10:19:46;10.53;;;9.63;;
2684;SDS011;1352;48.446;9.156;2022-07-23T10:22:14;10.70;;;9.90;;
2684;SDS011;1352;48.446;9.156;2022-07-23T10:24:47;11.10;;;10.10;;
2684;SDS011;1352;48.446;9.156;2022-07-23T10:30:17;11.97;;;11.07;;
2684;SDS011;1352;48.446;9.156;2022-07-23T10:32:52;12.57;;;11.47;;
2684;SDS011;1352;48.446;9.156;2022-07-23T10:35:29;11.37;;;10.50;;
2684;SDS011;1352;48.446;9.156;2022-07-23T10:38:11;12.00;;;10.87;;
2684;SDS011;1352;48.446;9.156;2022-07-23T10:40:55;12.80;;;11.80;;
2684;SDS011;1352;48.446;9.156;2022-07-23T10:43:23;11.50;;;10.60;;
2684;SDS011;1352;48.446;9.156;2022-07-23T10:45:54;11.73;;;10.93;;
2684;SDS011;1352;48.446;9.156;2022-07-23T10:48:22;11.40;;;10.60;;
2684;SDS011;1352;48.446;9.156;2022-07-23T10:51:08;12.27;;;11.07;;
2684;SDS011;1352;48.446;9.156;2022-07-23T10:53:53;13.10;;;12.00;;
2684;SDS011;1352;48.446;9.156;2022-07-23T11:02:38;11.93;;;11.03;;
2684;SDS011;1352;48.446;9.156;2022-07-23T11:05:07;12.60;;;11.70;;
2684;SDS011;1352;48.446;9.156;2022-07-23T11:08:09;12.43;;;11.53;;
2684;SDS011;1352;48.446;9.156;2022-07-23T11:10:40;12.43;;;11.43;;
2684;SDS011;1352;48.446;9.156;2022-07-23T11:13:31;13.20;;;12.10;;
2684;SDS011;1352;48.446;9.156;2022-07-23T11:16:04;12.20;;;11.23;;
2684;SDS011;1352;48.446;9.156;2022-07-23T11:24:24;12.10;;;11.20;;
2684;SDS011;1352;48.446;9.156;2022-07-23T11:26:55;12.30;;;11.30;;
2684;SDS011;1352;48.446;9.156;2022-07-23T11:29:40;11.97;;;10.97;;
2684;SDS011;1352;48.446;9.156;2022-07-23T11:34:58;12.70;;;11.60;;
2684;SDS011;1352;48.446;9.156;2022-07-23T11:37:27;12.47;;;11.37;;
2684;SDS011;1352;48.446;9.156;2022-07-23T11:40:07;12.43;;;11.43;;
2684;SDS011;1352;48.446;9.156;2022-07-23T11:42:37;13.03;;;11.93;;
2684;SDS011;1352;48.446;9.156;2022-07-23T11:45:06;12.47;;;11.50;;
2684;SDS011;1352;48.446;9.156;2022-07-23T11:47:34;11.60;;;10.70;;
2684;SDS011;1352;48.446;9.156;2022-07-23T11:50:02;12.10;;;11.10;;
2684;SDS011;1352;48.446;9.156;2022-07-23T11:52:31;12.73;;;11.73;;
2684;SDS011;1352;48.446;9.156;2022-07-23T11:54:59;12.47;;;11.53;;
2684;SDS011;1352;48.446;9.156;2022-07-23T11:57:29;12.93;;;11.93;;
2684;SDS011;1352;48.446;9.156;2022-07-23T11:59:57;12.70;;;11.50;;
2684;SDS011;1352;48.446;9.156;2022-07-23T12:02:30;12.67;;;11.37;;
2684;SDS011;1352;48.446;9.156;2022-07-23T12:04:57;12.73;;;11.73;;
2684;SDS011;1352;48.446;9.156;2022-07-23T12:07:28;11.60;;;10.73;;
2684;SDS011;1352;48.446;9.156;2022-07-23T12:10:00;12.73;;;11.70;;
2684;SDS011;1352;48.446;9.156;2022-07-23T12:12:36;11.20;;;10.40;;
2684;SDS011;1352;48.446;9.156;2022-07-23T12:15:05;11.87;;;10.73;;
2684;SDS011;1352;48.446;9.156;2022-07-23T12:17:34;13.00;;;12.00;;
2684;SDS011;1352;48.446;9.156;2022-07-23T12:20:03;12.23;;;11.27;;
2684;SDS011;1352;48.446;9.156;2022-07-23T12:22:36;13.80;;;12.60;;
2684;SDS011;1352;48.446;9.156;2022-07-23T12:25:05;11.83;;;10.83;;
2684;SDS011;1352;48.446;9.156;2022-07-23T12:27:35;12.97;;;11.70;;
2684;SDS011;1352;48.446;9.156;2022-07-23T12:30:16;14.40;;;13.20;;
2684;SDS011;1352;48.446;9.156;2022-07-23T12:32:47;12.50;;;11.50;;
2684;SDS011;1352;48.446;9.156;2022-07-23T12:35:16;13.93;;;12.70;;
2684;SDS011;1352;48.446;9.156;2022-07-23T12:37:44;12.67;;;11.77;;
2684;SDS011;1352;48.446;9.156;2022-07-23T12:40:19;13.93;;;12.80;;
2684;SDS011;1352;48.446;9.156;2022-07-23T12:42:53;14.87;;;11.90;;
2684;SDS011;1352;48.446;9.156;2022-07-23T12:45:22;13.10;;;11.83;;
2684;SDS011;1352;48.446;9.156;2022-07-23T12:50:38;13.63;;;12.40;;
2684;SDS011;1352;48.446;9.156;2022-07-23T12:53:10;12.90;;;11.80;;
2684;SDS011;1352;48.446;9.156;2022-07-23T12:55:39;12.87;;;11.47;;
2684;SDS011;1352;48.446;9.156;2022-07-23T12:58:09;12.87;;;11.77;;
2684;SDS011;1352;48.446;9.156;2022-07-23T13:00:54;12.90;;;11.83;;
2684;SDS011;1352;48.446;9.156;2022-07-23T13:03:26;12.80;;;11.50;;
2684;SDS011;1352;48.446;9.156;2022-07-23T13:05:56;12.27;;;11.27;;
2684;SDS011;1352;48.446;9.156;2022-07-23T13:08:26;12.80;;;11.67;;
2684;SDS011;1352;48.446;9.156;2022-07-23T13:10:54;12.87;;;11.80;;
2684;SDS011;1352;48.446;9.156;2022-07-23T13:13:23;12.73;;;11.63;;
2684;SDS011;1352;48.446;9.156;2022-07-23T13:15:52;12.50;;;11.30;;
2684;SDS011;1352;48.446;9.156;2022-07-23T13:18:24;12.40;;;11.30;;
2684;SDS011;1352;48.446;9.156;2022-07-23T13:20:52;13.17;;;12.07;;
2684;SDS011;1352;48.446;9.156;2022-07-23T13:23:20;12.67;;;11.60;;
2684;SDS011;1352;48.446;9.156;2022-07-23T13:25:47;12.23;;;11.27;;
2684;SDS011;1352;48.446;9.156;2022-07-23T13:28:15;12.40;;;11.40;;
2684;SDS011;1352;48.446;9.156;2022-07-23T13:30:44;12.57;;;11.47;;
2684;SDS011;1352;48.446;9.156;2022-07-23T13:33:15;12.17;;;11.27;;
2684;SDS011;1352;48.446;9.156;2022-07-23T13:35:43;12.10;;;11.20;;
2684;SDS011;1352;48.446;9.156;2022-07-23T13:38:10;12.23;;;11.33;;
2684;SDS011;1352;48.446;9.156;2022-07-23T13:40:39;11.93;;;11.03;;
2684;SDS011;1352;48.446;9.156;2022-07-23T13:43:10;12.23;;;11.20;;
2684;SDS011;1352;48.446;9.156;2022-07-23T13:45:38;11.93;;;11.00;;
2684;SDS011;1352;48.446;9.156;2022-07-23T13:48:09;12.40;;;11.30;;
2684;SDS011;1352;48.446;9.156;2022-07-23T13:50:37;11.90;;;10.83;;
2684;SDS011;1352;48.446;9.156;2022-07-23T13:53:05;21.07;;;19.03;;
2684;SDS011;1352;48.446;9.156;2022-07-23T13:55:36;16.33;;;14.93;;
2684;SDS011;1352;48.446;9.156;2022-07-23T13:58:04;12.00;;;11.10;;
2684;SDS011;1352;48.446;9.156;2022-07-23T14:00:33;12.33;;;11.33;;
2684;SDS011;1352;48.446;9.156;2022-07-23T14:03:02;11.43;;;10.50;;
2684;SDS011;1352;48.446;9.156;2022-07-23T14:05:31;11.90;;;11.07;;
2684;SDS011;1352;48.446;9.156;2022-07-23T14:07:59;11.90;;;11.00;;
2684;SDS011;1352;48.446;9.156;2022-07-23T14:10:26;11.97;;;10.87;;
2684;SDS011;1352;48.446;9.156;2022-07-23T14:12:53;11.50;;;10.57;;
2684;SDS011;1352;48.446;9.156;2022-07-23T14:15:23;11.87;;;10.93;;
2684;SDS011;1352;48.446;9.156;2022-07-23T14:17:52;12.63;;;11.53;;
2684;SDS011;1352;48.446;9.156;2022-07-23T14:20:20;13.07;;;11.80;;
2684;SDS011;1352;48.446;9.156;2022-07-23T14:22:49;12.80;;;11.70;;
2684;SDS011;1352;48.446;9.156;2022-07-23T14:25:16;12.10;;;11.13;;
2684;SDS011;1352;48.446;9.156;2022-07-23T14:27:43;12.60;;;11.50;;
2684;SDS011;1352;48.446;9.156;2022-07-23T14:30:12;11.90;;;10.90;;
2684;SDS011;1352;48.446;9.156;2022-07-23T14:32:40;11.20;;;10.30;;
2684;SDS011;1352;48.446;9.156;2022-07-23T14:35:07;10.73;;;9.87;;
2684;SDS011;1352;48.446;9.156;2022-07-23T14:37:35;11.23;;;10.37;;
2684;SDS011;1352;48.446;9.156;2022-07-23T14:40:04;11.63;;;10.60;;
2684;SDS011;1352;48.446;9.156;2022-07-23T14:42:34;10.67;;;9.80;;
2684;SDS011;1352;48.446;9.156;2022-07-23T14:45:02;10.97;;;9.87;;
2684;SDS011;1352;48.446;9.156;2022-07-23T14:47:30;13.70;;;12.43;;
2684;SDS011;1352;48.446;9.156;2022-07-23T14:49:57;10.83;;;9.87;;
2684;SDS011;1352;48.446;9.156;2022-07-23T14:52:24;11.60;;;10.80;;
2684;SDS011;1352;48.446;9.156;2022-07-23T14:54:51;11.30;;;10.40;;
2684;SDS011;1352;48.446;9.156;2022-07-23T14:57:20;11.40;;;10.50;;
2684;SDS011;1352;48.446;9.156;2022-07-23T14:59:47;10.90;;;9.90;;
2684;SDS011;1352;48.446;9.156;2022-07-23T15:02:14;11.00;;;10.10;;
2684;SDS011;1352;48.446;9.156;2022-07-23T15:04:43;11.43;;;10.53;;
2684;SDS011;1352;48.446;9.156;2022-07-23T15:07:11;12.27;;;11.03;;
2684;SDS011;1352;48.446;9.156;2022-07-23T15:09:38;10.63;;;9.83;;
2684;SDS011;1352;48.446;9.156;2022-07-23T15:12:05;11.47;;;10.53;;
2684;SDS011;1352;48.446;9.156;2022-07-23T15:14:34;12.03;;;11.13;;
2684;SDS011;1352;48.446;9.156;2022-07-23T15:17:01;11.60;;;10.40;;
2684;SDS011;1352;48.446;9.156;2022-07-23T15:19:28;10.93;;;10.13;;
2684;SDS011;1352;48.446;9.156;2022-07-23T15:21:55;11.40;;;10.47;;
2684;SDS011;1352;48.446;9.156;2022-07-23T15:24:24;11.30;;;10.30;;